createdAt,value
2022-10-23T00:01:26.420Z,89.40
2022-10-23T00:03:59.100Z,89.40
2022-10-23T00:06:28.200Z,89.50
2022-10-23T00:08:56.130Z,89.60
2022-10-23T00:11:26.701Z,89.70
2022-10-23T00:13:55.513Z,89.60
2022-10-23T00:16:22.606Z,89.50
2022-10-23T00:18:49.697Z,89.50
2022-10-23T00:21:17.505Z,89.40
2022-10-23T00:23:46.193Z,89.40
2022-10-23T00:26:17.455Z,89.30
2022-10-23T00:28:46.825Z,89.20
2022-10-23T00:31:14.349Z,89.10
2022-10-23T00:33:42.517Z,89.00
2022-10-23T00:36:11.617Z,88.90
2022-10-23T00:38:39.094Z,88.90
2022-10-23T00:41:07.605Z,88.80
2022-10-23T00:43:35.682Z,88.80
2022-10-23T00:46:02.814Z,88.80
2022-10-23T00:48:29.893Z,88.70
2022-10-23T00:50:56.979Z,88.60
2022-10-23T00:53:24.815Z,88.60
2022-10-23T00:55:54.779Z,88.80
2022-10-23T00:58:22.176Z,88.90
2022-10-23T01:00:52.585Z,89.10
2022-10-23T01:03:23.355Z,89.20
2022-10-23T01:05:50.371Z,89.30
2022-10-23T01:08:40.314Z,89.30
2022-10-23T01:11:21.375Z,89.30
2022-10-23T01:14:11.564Z,89.40
2022-10-23T01:16:53.089Z,89.30
2022-10-23T01:19:42.752Z,89.40
2022-10-23T01:22:29.231Z,89.30
2022-10-23T01:25:04.656Z,89.20
2022-10-23T01:27:38.667Z,89.10
2022-10-23T01:30:15.859Z,89.10
2022-10-23T01:32:45.895Z,89.00
2022-10-23T01:35:34.947Z,88.90
2022-10-23T01:38:13.998Z,88.80
2022-10-23T01:41:07.151Z,88.80
2022-10-23T01:43:44.144Z,88.70
2022-10-23T01:46:16.103Z,89.20
2022-10-23T01:48:53.347Z,89.20
2022-10-23T01:51:24.867Z,89.00
2022-10-23T01:53:58.031Z,88.90
2022-10-23T01:56:32.738Z,88.70
2022-10-23T01:59:04.912Z,88.60
2022-10-23T02:01:34.757Z,88.40
2022-10-23T02:04:05.411Z,88.10
2022-10-23T02:06:32.743Z,87.90
2022-10-23T02:08:59.890Z,87.60
2022-10-23T02:11:27.004Z,87.40
2022-10-23T02:14:18.811Z,87.30
2022-10-23T02:16:53.706Z,87.00
2022-10-23T02:19:54.713Z,86.90
2022-10-23T02:22:39.682Z,86.80
2022-10-23T02:25:09.632Z,86.80
2022-10-23T02:27:40.801Z,86.80
2022-10-23T02:30:13.643Z,87.00
2022-10-23T02:32:45.866Z,87.30
2022-10-23T02:35:14.092Z,87.80
2022-10-23T02:37:41.483Z,88.00
2022-10-23T02:40:09.852Z,88.20
2022-10-23T02:42:45.308Z,88.50
2022-10-23T02:45:45.352Z,88.60
2022-10-23T02:48:22.620Z,88.60
2022-10-23T02:51:10.751Z,89.00
2022-10-23T02:53:46.911Z,88.90
2022-10-23T02:56:34.460Z,88.90
2022-10-23T02:59:17.668Z,88.90
2022-10-23T03:02:02.742Z,88.70
2022-10-23T03:04:31.813Z,88.60
2022-10-23T03:06:59.013Z,88.40
2022-10-23T03:09:27.014Z,88.50
2022-10-23T03:11:54.165Z,88.50
2022-10-23T03:14:21.262Z,88.40
2022-10-23T03:16:48.287Z,88.40
2022-10-23T03:19:15.404Z,88.20
2022-10-23T03:21:42.435Z,88.20
2022-10-23T03:24:09.466Z,88.00
2022-10-23T03:26:36.507Z,87.90
2022-10-23T03:29:03.581Z,87.80
2022-10-23T03:31:30.654Z,87.70
2022-10-23T03:33:57.732Z,87.60
2022-10-23T03:36:24.870Z,87.40
2022-10-23T03:38:52.357Z,87.30
2022-10-23T03:41:19.499Z,87.20
2022-10-23T03:43:46.535Z,87.10
2022-10-23T03:46:13.691Z,87.60
2022-10-23T03:48:41.959Z,87.60
2022-10-23T03:51:09.027Z,87.30
2022-10-23T03:53:36.076Z,87.20
2022-10-23T03:56:03.198Z,87.00
2022-10-23T03:58:31.422Z,86.60
2022-10-23T04:00:58.699Z,86.40
2022-10-23T04:03:25.827Z,86.20
2022-10-23T04:05:52.903Z,86.00
2022-10-23T04:08:20.258Z,85.80
2022-10-23T04:10:47.549Z,85.60
2022-10-23T04:13:14.734Z,85.40
2022-10-23T04:15:47.410Z,85.20
2022-10-23T04:18:14.473Z,85.10
2022-10-23T04:20:41.511Z,85.00
2022-10-23T04:23:08.539Z,84.90
2022-10-23T04:25:35.597Z,84.80
2022-10-23T04:28:02.655Z,84.70
2022-10-23T04:30:29.693Z,84.80
2022-10-23T04:32:56.748Z,84.80
2022-10-23T04:35:23.803Z,84.80
2022-10-23T04:37:50.887Z,84.90
2022-10-23T04:40:17.927Z,85.40
2022-10-23T04:42:45.189Z,85.40
2022-10-23T04:45:12.757Z,85.50
2022-10-23T04:47:39.775Z,85.60
2022-10-23T04:50:07.163Z,85.40
2022-10-23T04:52:34.237Z,85.80
2022-10-23T04:55:01.272Z,85.60
2022-10-23T04:57:28.293Z,85.60
2022-10-23T04:59:55.468Z,85.70
2022-10-23T05:02:24.241Z,85.80
2022-10-23T05:04:51.320Z,85.80
2022-10-23T05:07:18.386Z,85.90
2022-10-23T05:09:45.431Z,86.00
2022-10-23T05:12:12.489Z,86.10
2022-10-23T05:14:39.529Z,86.10
2022-10-23T05:17:16.016Z,86.20
2022-10-23T05:19:51.024Z,86.30
2022-10-23T05:22:19.938Z,86.30
2022-10-23T05:24:49.735Z,86.80
2022-10-23T05:27:17.937Z,87.10
2022-10-23T05:29:44.993Z,87.30
2022-10-23T05:32:14.388Z,87.10
2022-10-23T05:34:42.437Z,87.10
2022-10-23T05:37:13.177Z,87.00
2022-10-23T05:39:40.284Z,86.90
2022-10-23T05:42:07.421Z,86.70
2022-10-23T05:44:35.317Z,86.60
2022-10-23T05:47:02.478Z,86.60
2022-10-23T05:49:29.560Z,86.60
2022-10-23T05:51:56.587Z,86.50
2022-10-23T05:54:23.662Z,86.40
2022-10-23T05:56:51.731Z,86.20
2022-10-23T05:59:21.996Z,86.00
2022-10-23T06:01:50.455Z,85.90
2022-10-23T06:04:17.621Z,85.90
2022-10-23T06:06:46.463Z,85.60
2022-10-23T06:09:15.065Z,86.00
2022-10-23T06:11:42.544Z,85.30
2022-10-23T06:14:09.755Z,85.30
2022-10-23T06:16:36.873Z,85.60
2022-10-23T06:19:04.219Z,85.40
2022-10-23T06:21:31.260Z,85.40
2022-10-23T06:23:58.322Z,85.40
2022-10-23T06:26:25.436Z,85.30
2022-10-23T06:28:52.454Z,85.20
2022-10-23T06:31:20.279Z,85.20
2022-10-23T06:33:47.425Z,85.20
2022-10-23T06:36:14.527Z,85.20
2022-10-23T06:38:41.594Z,85.10
2022-10-23T06:41:16.994Z,84.90
2022-10-23T06:43:44.329Z,84.70
2022-10-23T06:46:11.365Z,84.60
2022-10-23T06:48:38.491Z,84.60
2022-10-23T06:51:07.646Z,84.50
2022-10-23T06:53:35.851Z,84.30
2022-10-23T06:56:05.437Z,84.20
2022-10-23T06:58:33.643Z,84.00
2022-10-23T07:01:02.595Z,83.90
2022-10-23T07:03:29.823Z,83.70
2022-10-23T07:05:59.659Z,83.70
2022-10-23T07:08:26.717Z,83.50
2022-10-23T07:10:54.156Z,83.40
2022-10-23T07:13:22.291Z,83.20
2022-10-23T07:15:49.324Z,83.20
2022-10-23T07:18:16.898Z,83.10
2022-10-23T07:20:44.060Z,83.00
2022-10-23T07:23:12.071Z,83.00
2022-10-23T07:25:39.105Z,83.00
2022-10-23T07:28:06.868Z,83.20
2022-10-23T07:30:34.132Z,83.30
2022-10-23T07:33:01.160Z,83.50
2022-10-23T07:35:28.268Z,83.50
2022-10-23T07:37:55.446Z,83.60
2022-10-23T07:40:22.533Z,83.60
2022-10-23T07:42:49.548Z,83.80
2022-10-23T07:45:16.742Z,83.90
2022-10-23T07:47:44.048Z,83.80
2022-10-23T07:50:11.428Z,83.70
2022-10-23T07:52:38.512Z,83.60
2022-10-23T07:55:05.849Z,83.60
2022-10-23T07:57:32.897Z,83.50
2022-10-23T07:59:59.955Z,83.60
2022-10-23T08:02:27.145Z,83.50
2022-10-23T08:04:54.201Z,83.40
2022-10-23T08:07:21.249Z,83.70
2022-10-23T08:09:48.287Z,83.90
2022-10-23T08:12:15.345Z,83.80
2022-10-23T08:14:42.390Z,83.80
2022-10-23T08:17:09.921Z,83.90
2022-10-23T08:19:37.541Z,83.90
2022-10-23T08:22:04.622Z,83.80
2022-10-23T08:24:31.681Z,84.10
2022-10-23T08:26:59.307Z,83.10
2022-10-23T08:29:26.345Z,83.20
2022-10-23T08:31:56.193Z,83.60
2022-10-23T08:34:23.834Z,83.10
2022-10-23T08:36:51.121Z,83.00
2022-10-23T08:39:18.327Z,83.00
2022-10-23T08:41:51.367Z,83.20
2022-10-23T08:44:58.197Z,83.40
2022-10-23T08:47:33.060Z,83.60
2022-10-23T08:50:07.398Z,83.60
2022-10-23T08:52:41.355Z,83.90
2022-10-23T08:55:17.511Z,83.90
2022-10-23T08:58:29.273Z,84.30
2022-10-23T09:00:56.334Z,84.50
2022-10-23T09:03:23.527Z,84.60
2022-10-23T09:06:25.264Z,84.50
2022-10-23T09:09:04.738Z,84.50
2022-10-23T09:11:40.923Z,84.70
2022-10-23T09:14:41.362Z,84.90
2022-10-23T09:17:22.870Z,85.00
2022-10-23T09:19:56.763Z,85.10
2022-10-23T09:22:23.863Z,84.90
2022-10-23T09:24:53.787Z,84.90
2022-10-23T09:27:21.506Z,84.80
2022-10-23T09:29:51.803Z,84.90
2022-10-23T09:32:20.673Z,84.90
2022-10-23T09:34:55.387Z,84.80
2022-10-23T09:37:31.319Z,84.90
2022-10-23T09:40:25.527Z,84.80
2022-10-23T09:42:56.092Z,84.80
2022-10-23T09:45:42.482Z,84.90
2022-10-23T09:48:17.824Z,85.00
2022-10-23T09:51:03.578Z,85.00
2022-10-23T09:53:40.331Z,85.10
2022-10-23T09:56:25.983Z,85.20
2022-10-23T09:58:59.840Z,85.40
2022-10-23T10:01:33.222Z,85.60
2022-10-23T10:04:00.403Z,85.70
2022-10-23T10:06:33.167Z,85.60
2022-10-23T10:09:05.427Z,85.50
2022-10-23T10:11:56.500Z,85.40
2022-10-23T10:14:51.616Z,85.30
2022-10-23T10:17:41.803Z,85.40
2022-10-23T10:20:28.649Z,85.40
2022-10-23T10:23:17.785Z,85.30
2022-10-23T10:26:09.032Z,85.40
2022-10-23T10:29:08.410Z,85.40
2022-10-23T10:31:56.816Z,85.40
2022-10-23T10:34:38.964Z,85.40
2022-10-23T10:37:26.445Z,85.50
2022-10-23T10:40:13.948Z,85.50
2022-10-23T10:42:58.525Z,85.70
2022-10-23T10:45:32.732Z,85.90
2022-10-23T10:48:21.430Z,86.10
2022-10-23T10:50:52.090Z,86.40
2022-10-23T10:53:27.561Z,86.50
2022-10-23T10:55:56.890Z,86.70
2022-10-23T10:58:38.984Z,86.60
2022-10-23T11:01:26.335Z,86.70
2022-10-23T11:04:11.849Z,86.70
2022-10-23T11:06:39.322Z,86.60
2022-10-23T11:09:20.540Z,86.60
2022-10-23T11:11:49.045Z,86.60
2022-10-23T11:14:23.085Z,86.60
2022-10-23T11:16:53.025Z,86.50
2022-10-23T11:19:30.462Z,86.60
2022-10-23T11:22:06.478Z,86.60
2022-10-23T11:24:50.066Z,86.80
2022-10-23T11:27:40.473Z,86.90
2022-10-23T11:30:34.578Z,87.00
2022-10-23T11:33:15.194Z,87.00
2022-10-23T11:36:20.524Z,87.10
2022-10-23T11:38:50.118Z,86.90
2022-10-23T11:41:26.689Z,86.70
2022-10-23T11:44:04.519Z,85.30
2022-10-23T11:46:38.683Z,84.30
2022-10-23T11:49:19.287Z,85.00
2022-10-23T11:51:46.579Z,85.00
2022-10-23T11:54:24.833Z,84.80
2022-10-23T11:57:11.699Z,84.70
2022-10-23T11:59:47.879Z,85.00
2022-10-23T12:02:37.400Z,84.70
2022-10-23T12:05:06.455Z,84.30
2022-10-23T12:07:37.563Z,84.10
2022-10-23T12:10:22.567Z,83.90
2022-10-23T12:13:01.809Z,83.70
2022-10-23T12:15:29.459Z,83.80
2022-10-23T12:18:13.062Z,84.90
2022-10-23T12:20:43.137Z,85.10
2022-10-23T12:23:25.420Z,85.40
2022-10-23T12:26:07.344Z,85.70
2022-10-23T12:28:40.195Z,85.80
2022-10-23T12:31:44.243Z,85.90
2022-10-23T12:34:50.780Z,85.40
2022-10-23T12:37:44.021Z,85.30
2022-10-23T12:40:12.332Z,84.80
2022-10-23T12:42:39.517Z,85.10
2022-10-23T12:45:20.388Z,85.00
2022-10-23T12:47:49.524Z,86.00
2022-10-23T12:50:18.096Z,85.40
2022-10-23T12:53:16.588Z,86.40
2022-10-23T12:55:55.609Z,87.30
2022-10-23T12:58:33.908Z,85.50
2022-10-23T13:01:03.705Z,84.50
2022-10-23T13:03:32.541Z,85.20
2022-10-23T13:06:02.804Z,85.00
2022-10-23T13:08:38.978Z,86.00
2022-10-23T13:11:09.633Z,85.70
2022-10-23T13:13:36.717Z,85.70
2022-10-23T13:16:14.714Z,86.00
2022-10-23T13:18:42.241Z,86.30
2022-10-23T13:21:23.538Z,86.50
2022-10-23T13:23:52.009Z,86.20
2022-10-23T13:26:33.526Z,85.50
2022-10-23T13:29:07.378Z,84.90
2022-10-23T13:31:37.026Z,85.60
2022-10-23T13:34:13.590Z,86.30
2022-10-23T13:36:54.157Z,86.70
2022-10-23T13:39:27.242Z,86.80
2022-10-23T13:41:54.344Z,87.10
2022-10-23T13:44:23.706Z,87.20
2022-10-23T13:46:52.133Z,87.20
2022-10-23T13:49:19.902Z,87.20
2022-10-23T13:51:55.284Z,87.30
2022-10-23T13:54:25.135Z,87.50
2022-10-23T13:56:53.444Z,87.40
2022-10-23T13:59:21.188Z,87.40
2022-10-23T14:01:50.269Z,87.90
2022-10-23T14:04:18.929Z,87.90
2022-10-23T14:06:46.135Z,88.00
2022-10-23T14:09:16.590Z,88.30
2022-10-23T14:11:44.050Z,89.10
2022-10-23T14:14:11.087Z,88.70
2022-10-23T14:16:38.119Z,89.10
2022-10-23T14:19:05.221Z,89.10
2022-10-23T14:21:32.255Z,89.00
2022-10-23T14:23:59.348Z,89.00
2022-10-23T14:26:30.054Z,88.80
2022-10-23T14:29:01.108Z,88.60
2022-10-23T14:31:32.195Z,88.60
2022-10-23T14:34:00.802Z,88.70
2022-10-23T14:36:38.341Z,88.60
2022-10-23T14:39:16.023Z,88.50
2022-10-23T14:41:43.186Z,88.80
2022-10-23T14:44:10.351Z,88.90
2022-10-23T14:46:38.168Z,88.80
2022-10-23T14:49:05.527Z,88.70
2022-10-23T14:51:32.856Z,88.60
2022-10-23T14:54:02.491Z,89.20
2022-10-23T14:56:31.885Z,88.20
2022-10-23T14:59:02.741Z,88.10
2022-10-23T15:01:41.234Z,87.90
2022-10-23T15:04:14.229Z,87.80
2022-10-23T15:06:41.860Z,88.10
2022-10-23T15:09:09.076Z,87.90
2022-10-23T15:11:36.184Z,87.90
2022-10-23T15:14:03.276Z,87.80
2022-10-23T15:16:30.740Z,88.00
2022-10-23T15:18:57.800Z,88.00
2022-10-23T15:21:24.957Z,88.00
2022-10-23T15:23:52.915Z,87.90
2022-10-23T15:26:22.794Z,88.00
2022-10-23T15:28:54.689Z,88.00
2022-10-23T15:31:43.041Z,87.90
2022-10-23T15:34:21.817Z,87.80
2022-10-23T15:36:49.461Z,87.90
2022-10-23T15:39:20.546Z,87.70
2022-10-23T15:41:49.823Z,87.90
2022-10-23T15:44:19.462Z,87.70
2022-10-23T15:46:47.027Z,87.50
2022-10-23T15:49:14.518Z,87.30
2022-10-23T15:51:42.750Z,87.50
2022-10-23T15:54:16.364Z,87.20
2022-10-23T15:56:44.328Z,87.90
2022-10-23T15:59:11.406Z,87.50
2022-10-23T16:01:39.089Z,88.60
2022-10-23T16:04:06.486Z,89.30
2022-10-23T16:06:33.694Z,89.80
2022-10-23T16:09:00.774Z,90.10
2022-10-23T16:11:30.931Z,90.30
2022-10-23T16:13:59.554Z,90.40
2022-10-23T16:16:28.059Z,90.40
2022-10-23T16:18:55.448Z,90.60
2022-10-23T16:21:28.201Z,90.60
2022-10-23T16:23:57.135Z,90.70
2022-10-23T16:26:24.399Z,90.90
2022-10-23T16:28:55.872Z,91.00
2022-10-23T16:31:24.260Z,91.10
2022-10-23T16:33:52.025Z,91.20
2022-10-23T16:36:20.106Z,91.30
2022-10-23T16:38:47.239Z,91.40
2022-10-23T16:41:14.360Z,91.50
2022-10-23T16:43:41.479Z,91.50
2022-10-23T16:46:13.411Z,91.50
2022-10-23T16:48:41.155Z,91.70
2022-10-23T16:51:14.871Z,91.80
2022-10-23T16:53:43.336Z,91.80
2022-10-23T16:56:12.959Z,91.70
2022-10-23T16:58:40.857Z,91.80
2022-10-23T17:01:14.748Z,91.80
2022-10-23T17:03:44.572Z,91.90
2022-10-23T17:06:14.240Z,91.90
2022-10-23T17:08:41.828Z,91.90
2022-10-23T17:11:13.101Z,91.90
2022-10-23T17:14:11.221Z,91.90
2022-10-23T17:16:51.340Z,92.00
2022-10-23T17:19:40.123Z,91.90
2022-10-23T17:22:12.468Z,91.90
2022-10-23T17:24:41.084Z,91.90
2022-10-23T17:27:08.370Z,91.90
2022-10-23T17:29:35.660Z,91.90
2022-10-23T17:32:03.037Z,91.90
2022-10-23T17:34:30.112Z,91.90
2022-10-23T17:36:57.245Z,92.00
2022-10-23T17:39:27.011Z,91.90
2022-10-23T17:41:55.393Z,92.00
2022-10-23T17:44:22.969Z,91.90
2022-10-23T17:46:54.697Z,92.00
2022-10-23T17:49:22.641Z,92.00
2022-10-23T17:51:54.946Z,92.10
2022-10-23T17:54:23.357Z,92.10
2022-10-23T17:56:50.469Z,92.10
2022-10-23T17:59:20.846Z,92.20
2022-10-23T18:01:48.870Z,92.20
2022-10-23T18:04:18.965Z,92.30
2022-10-23T18:06:49.633Z,92.20
2022-10-23T18:09:17.417Z,92.20
2022-10-23T18:11:48.024Z,92.20
2022-10-23T18:14:17.453Z,92.10
2022-10-23T18:16:45.624Z,92.10
2022-10-23T18:19:14.041Z,92.10
2022-10-23T18:21:41.410Z,92.10
2022-10-23T18:24:10.028Z,92.10
2022-10-23T18:26:39.003Z,92.10
2022-10-23T18:29:09.705Z,92.10
2022-10-23T18:31:37.314Z,92.00
2022-10-23T18:34:07.770Z,91.90
2022-10-23T18:36:37.756Z,91.90
2022-10-23T18:39:06.891Z,91.80
2022-10-23T18:41:37.067Z,91.80
2022-10-23T18:44:04.562Z,92.10
2022-10-23T18:46:32.068Z,91.70
2022-10-23T18:48:59.529Z,91.70
2022-10-23T18:51:32.155Z,91.60
2022-10-23T18:54:04.260Z,91.60
2022-10-23T18:56:32.276Z,91.60
2022-10-23T18:59:01.774Z,91.60
2022-10-23T19:01:30.713Z,91.50
2022-10-23T19:04:00.309Z,91.50
2022-10-23T19:06:28.908Z,91.50
2022-10-23T19:08:56.457Z,91.50
2022-10-23T19:11:25.252Z,91.40
2022-10-23T19:13:52.656Z,91.50
2022-10-23T19:16:30.452Z,91.50
2022-10-23T19:19:04.900Z,91.50
2022-10-23T19:21:36.584Z,91.50
2022-10-23T19:24:07.499Z,91.50
2022-10-23T19:26:37.276Z,91.50
2022-10-23T19:29:07.310Z,91.40
2022-10-23T19:31:34.377Z,91.40
2022-10-23T19:34:01.483Z,91.40
2022-10-23T19:36:28.552Z,91.50
2022-10-23T19:38:56.981Z,91.60
2022-10-23T19:41:24.985Z,91.60
2022-10-23T19:43:52.020Z,91.60
2022-10-23T19:46:19.141Z,91.60
2022-10-23T19:48:46.704Z,91.60
2022-10-23T19:51:13.904Z,91.60
2022-10-23T19:53:42.521Z,91.70
2022-10-23T19:56:11.791Z,91.60
2022-10-23T19:58:41.225Z,91.70
2022-10-23T20:01:14.085Z,91.70
2022-10-23T20:03:42.852Z,91.70
2022-10-23T20:06:11.925Z,91.60
2022-10-23T20:08:39.637Z,91.60
2022-10-23T20:11:07.509Z,91.60
2022-10-23T20:13:35.065Z,91.60
2022-10-23T20:16:02.211Z,91.60
2022-10-23T20:18:29.345Z,91.60
2022-10-23T20:20:56.393Z,91.90
2022-10-23T20:23:24.047Z,91.50
2022-10-23T20:25:51.094Z,91.50
2022-10-23T20:28:18.149Z,91.40
2022-10-23T20:30:45.915Z,91.30
2022-10-23T20:33:13.018Z,91.30
2022-10-23T20:35:43.543Z,91.20
2022-10-23T20:38:10.689Z,91.20
2022-10-23T20:40:37.853Z,91.10
2022-10-23T20:43:05.032Z,91.10
2022-10-23T20:45:32.113Z,91.10
2022-10-23T20:47:59.160Z,91.20
2022-10-23T20:50:26.406Z,91.20
2022-10-23T20:52:53.454Z,91.20
2022-10-23T20:55:20.510Z,91.10
2022-10-23T20:57:47.616Z,91.10
2022-10-23T21:00:15.525Z,91.10
2022-10-23T21:02:45.789Z,91.10
2022-10-23T21:05:14.308Z,91.10
2022-10-23T21:07:41.347Z,91.10
2022-10-23T21:10:08.690Z,91.10
2022-10-23T21:12:35.723Z,91.20
2022-10-23T21:15:02.842Z,91.20
2022-10-23T21:17:35.582Z,91.30
2022-10-23T21:20:03.291Z,91.30
2022-10-23T21:22:30.427Z,91.30
2022-10-23T21:24:58.779Z,91.30
2022-10-23T21:27:26.059Z,91.30
2022-10-23T21:29:53.096Z,91.30
2022-10-23T21:32:20.745Z,91.30
2022-10-23T21:34:47.808Z,91.30
2022-10-23T21:37:15.235Z,91.30
2022-10-23T21:39:44.205Z,91.30
2022-10-23T21:42:13.013Z,91.30
2022-10-23T21:44:40.313Z,91.30
2022-10-23T21:47:07.536Z,91.30
2022-10-23T21:49:34.660Z,91.30
2022-10-23T21:52:01.847Z,91.30
2022-10-23T21:54:28.908Z,91.10
2022-10-23T21:56:55.959Z,91.00
2022-10-23T21:59:29.959Z,90.90
2022-10-23T22:01:59.186Z,90.80
2022-10-23T22:04:26.354Z,90.80
2022-10-23T22:06:53.545Z,90.70
2022-10-23T22:09:21.787Z,90.60
2022-10-23T22:11:50.128Z,90.60
2022-10-23T22:14:17.722Z,90.50
2022-10-23T22:16:44.823Z,90.50
2022-10-23T22:19:13.791Z,90.50
2022-10-23T22:21:41.820Z,90.40
2022-10-23T22:24:09.363Z,90.40
2022-10-23T22:26:39.397Z,90.30
2022-10-23T22:29:09.872Z,90.30
2022-10-23T22:31:38.748Z,90.20
2022-10-23T22:34:18.754Z,90.10
2022-10-23T22:36:54.633Z,90.00
2022-10-23T22:39:22.125Z,89.90
2022-10-23T22:41:49.558Z,89.70
2022-10-23T22:44:16.890Z,89.60
2022-10-23T22:46:44.383Z,89.60
2022-10-23T22:49:11.527Z,89.60
2022-10-23T22:51:39.721Z,89.50
2022-10-23T22:54:06.915Z,89.30
2022-10-23T22:56:34.552Z,89.20
2022-10-23T22:59:03.329Z,89.20
2022-10-23T23:01:38.412Z,89.10
2022-10-23T23:04:19.515Z,89.20
2022-10-23T23:06:52.618Z,89.10
2022-10-23T23:09:20.084Z,89.10
2022-10-23T23:11:52.551Z,89.10
2022-10-23T23:14:23.567Z,89.10
2022-10-23T23:16:54.585Z,89.10
2022-10-23T23:19:23.118Z,89.20
2022-10-23T23:21:50.390Z,89.20
2022-10-23T23:24:17.683Z,89.10
2022-10-23T23:26:44.726Z,89.30
2022-10-23T23:29:12.197Z,89.40
2022-10-23T23:31:39.402Z,89.60
2022-10-23T23:34:06.501Z,89.80
2022-10-23T23:36:33.825Z,90.00
2022-10-23T23:39:01.279Z,90.10
2022-10-23T23:41:29.386Z,90.10
2022-10-23T23:43:58.421Z,90.30
2022-10-23T23:46:26.223Z,90.30
2022-10-23T23:48:53.335Z,90.40
2022-10-23T23:51:23.233Z,90.40
2022-10-23T23:53:51.254Z,90.40
2022-10-23T23:56:19.317Z,90.50
2022-10-23T23:58:46.477Z,90.50
